Terminal Aerodrome Forecast
Issued by NWS Buffalo, NY

Home | Current Version | Previous Version | Text Only | Print | Product List | Glossary On
Versions: 1 2 3 4 5 6 7 8 9 10 11 12 13 14 15 16 17 18 19 20 21 22 23 24
000
FTUS41 KBUF 302339
TAFBUF
TAF
KBUF 302339Z 0100/0124 09014G22KT P6SM VCSH BKN045
     FM010300 10012KT P6SM SCT025 OVC035
     FM011000 09010KT P6SM VCSH OVC025
     FM011800 12010KT 6SM -SHRA OVC025
     FM012200 12008KT P6SM VCSH BKN035=

USA.gov is the U.S. government's official web portal to all federal, state and local government web resources and services.